createdAt,value
2018-12-31T00:00:44.955Z,14.93
2018-12-31T00:03:11.431Z,12.47
2018-12-31T00:05:37.883Z,14.87
2018-12-31T00:08:04.339Z,13.22
2018-12-31T00:10:30.815Z,13.25
2018-12-31T00:12:57.264Z,12.47
2018-12-31T00:15:23.933Z,12.78
2018-12-31T00:17:50.380Z,14.30
2018-12-31T00:20:16.746Z,12.43
2018-12-31T00:22:43.103Z,12.33
2018-12-31T00:25:09.476Z,13.30
2018-12-31T00:27:35.920Z,13.35
2018-12-31T00:30:05.479Z,13.20
2018-12-31T00:32:31.934Z,13.40
2018-12-31T00:34:58.451Z,13.98
2018-12-31T00:37:24.899Z,14.85
2018-12-31T00:39:51.439Z,15.35
2018-12-31T00:42:17.860Z,13.62
2018-12-31T00:44:44.310Z,15.15
2018-12-31T00:47:10.787Z,12.05
2018-12-31T00:49:37.235Z,12.70
2018-12-31T00:52:03.709Z,13.10
2018-12-31T00:54:30.163Z,13.00
2018-12-31T00:56:56.642Z,12.43
2018-12-31T00:59:23.081Z,13.45
2018-12-31T01:01:49.721Z,12.60
2018-12-31T01:04:16.272Z,11.45
2018-12-31T01:06:43.001Z,11.53
2018-12-31T01:09:09.468Z,10.43
2018-12-31T01:11:36.019Z,12.20
2018-12-31T01:14:02.683Z,10.88
2018-12-31T01:16:29.396Z,10.40
2018-12-31T01:18:55.961Z,10.90
2018-12-31T01:21:22.425Z,10.30
2018-12-31T01:23:48.879Z,11.63
2018-12-31T01:26:15.329Z,11.15
2018-12-31T01:28:41.804Z,11.12
2018-12-31T01:31:08.258Z,10.28
2018-12-31T01:33:34.743Z,9.30
2018-12-31T01:36:01.211Z,10.53
2018-12-31T01:38:27.579Z,10.32
2018-12-31T01:40:54.050Z,10.08
2018-12-31T01:43:20.530Z,10.93
2018-12-31T01:45:47.932Z,10.43
2018-12-31T01:48:14.400Z,10.98
2018-12-31T01:50:40.865Z,10.25
2018-12-31T01:53:07.305Z,11.25
2018-12-31T01:55:33.771Z,10.48
2018-12-31T01:58:00.233Z,10.82
2018-12-31T02:00:26.787Z,10.50
2018-12-31T02:02:53.196Z,10.72
2018-12-31T02:05:19.595Z,11.60
2018-12-31T02:07:46.068Z,9.25
2018-12-31T02:10:12.559Z,10.70
2018-12-31T02:12:39.025Z,10.25
2018-12-31T02:15:05.997Z,10.25
2018-12-31T02:17:32.576Z,10.20
2018-12-31T02:19:59.159Z,9.83
2018-12-31T02:22:25.804Z,8.10
2018-12-31T02:24:52.441Z,9.40
2018-12-31T02:27:18.904Z,9.40
2018-12-31T02:29:45.472Z,7.97
2018-12-31T02:32:12.219Z,9.40
2018-12-31T02:34:38.567Z,9.13
2018-12-31T02:37:05.046Z,9.18
2018-12-31T02:39:31.580Z,6.85
2018-12-31T02:41:58.045Z,7.80
2018-12-31T02:44:24.505Z,8.43
2018-12-31T02:46:50.960Z,7.28
2018-12-31T02:49:17.413Z,7.10
2018-12-31T02:51:43.867Z,6.20
2018-12-31T02:54:10.320Z,6.17
2018-12-31T02:56:36.685Z,6.58
2018-12-31T02:59:03.240Z,7.33
2018-12-31T03:01:29.808Z,7.75
2018-12-31T03:03:56.388Z,6.35
2018-12-31T03:06:23.026Z,6.70
2018-12-31T03:08:49.501Z,5.70
2018-12-31T03:11:16.039Z,6.62
2018-12-31T03:13:42.426Z,5.75
2018-12-31T03:16:08.871Z,7.20
2018-12-31T03:18:35.444Z,7.80
2018-12-31T03:21:01.892Z,6.20
2018-12-31T03:23:28.369Z,7.12
2018-12-31T03:25:55.091Z,6.33
2018-12-31T03:28:21.661Z,5.80
2018-12-31T03:30:48.121Z,5.97
2018-12-31T03:33:14.699Z,6.25
2018-12-31T03:35:41.314Z,5.25
2018-12-31T03:38:07.772Z,5.47
2018-12-31T03:40:34.282Z,6.10
2018-12-31T03:43:00.725Z,6.65
2018-12-31T03:45:27.387Z,5.67
2018-12-31T03:47:53.841Z,5.42
2018-12-31T03:50:20.316Z,7.12
2018-12-31T03:52:46.755Z,6.67
2018-12-31T03:55:13.131Z,6.92
2018-12-31T03:57:39.586Z,8.35
2018-12-31T04:00:06.352Z,8.78
2018-12-31T04:02:32.791Z,9.40
2018-12-31T04:04:59.176Z,8.23
2018-12-31T04:07:25.620Z,8.78
2018-12-31T04:09:52.084Z,8.33
2018-12-31T04:12:18.528Z,7.25
2018-12-31T04:14:44.900Z,7.95
2018-12-31T04:17:11.252Z,8.63
2018-12-31T04:19:37.731Z,8.45
2018-12-31T04:22:04.443Z,9.68
2018-12-31T04:24:31.005Z,10.53
2018-12-31T04:26:57.447Z,10.40
2018-12-31T04:29:23.837Z,11.20
2018-12-31T04:31:50.295Z,10.68
2018-12-31T04:34:16.735Z,11.53
2018-12-31T04:36:43.314Z,10.85
2018-12-31T04:39:09.667Z,11.65
2018-12-31T04:41:36.141Z,12.35
2018-12-31T04:44:02.784Z,12.05
2018-12-31T04:46:29.251Z,14.18
2018-12-31T04:48:55.868Z,13.95
2018-12-31T04:51:24.428Z,14.53
2018-12-31T04:53:51.010Z,13.88
2018-12-31T04:56:17.755Z,15.30
2018-12-31T04:58:44.113Z,12.23
2018-12-31T05:01:10.576Z,12.47
2018-12-31T05:03:36.981Z,14.45
2018-12-31T05:06:03.458Z,13.62
2018-12-31T05:08:30.254Z,12.55
2018-12-31T05:10:56.725Z,13.85
2018-12-31T05:13:23.160Z,14.40
2018-12-31T05:15:49.636Z,13.98
2018-12-31T05:18:15.988Z,15.98
2018-12-31T05:20:42.430Z,16.93
2018-12-31T05:23:08.904Z,14.20
2018-12-31T05:25:35.343Z,14.43
2018-12-31T05:28:01.735Z,15.40
2018-12-31T05:30:28.192Z,16.17
2018-12-31T05:32:54.645Z,14.80
2018-12-31T05:35:21.100Z,14.35
2018-12-31T05:37:47.465Z,16.17
2018-12-31T05:40:13.912Z,14.50
2018-12-31T05:42:40.378Z,14.70
2018-12-31T05:45:06.840Z,15.83
2018-12-31T05:47:33.674Z,15.80
2018-12-31T05:50:00.042Z,15.48
2018-12-31T05:52:26.522Z,14.98
2018-12-31T05:54:52.879Z,14.15
2018-12-31T05:57:19.620Z,14.05
2018-12-31T05:59:46.444Z,16.20
2018-12-31T06:02:13.204Z,15.88
2018-12-31T06:04:39.662Z,15.43
2018-12-31T06:07:06.008Z,14.45
2018-12-31T06:09:32.478Z,14.25
2018-12-31T06:11:58.913Z,16.07
2018-12-31T06:14:25.601Z,13.48
2018-12-31T06:16:52.016Z,15.13
2018-12-31T06:19:18.470Z,14.98
2018-12-31T06:21:44.836Z,14.55
2018-12-31T06:24:11.317Z,14.95
2018-12-31T06:26:37.752Z,14.47
2018-12-31T06:29:04.143Z,16.17
2018-12-31T06:31:30.590Z,15.60
2018-12-31T06:33:56.975Z,15.03
2018-12-31T06:36:23.408Z,15.58
2018-12-31T06:38:49.975Z,15.10
2018-12-31T06:41:16.432Z,15.28
2018-12-31T06:43:42.902Z,17.05
2018-12-31T06:46:09.348Z,15.58
2018-12-31T06:48:35.783Z,16.60
2018-12-31T06:51:02.252Z,15.78
2018-12-31T06:53:28.597Z,15.03
2018-12-31T06:55:55.184Z,14.47
2018-12-31T06:58:21.580Z,13.65
2018-12-31T07:00:48.032Z,14.60
2018-12-31T07:03:14.482Z,15.35
2018-12-31T07:05:40.934Z,15.65
2018-12-31T07:08:07.275Z,13.00
2018-12-31T07:10:33.735Z,14.70
2018-12-31T07:13:00.192Z,17.07
2018-12-31T07:15:26.918Z,17.82
2018-12-31T07:17:53.362Z,18.52
2018-12-31T07:20:19.739Z,17.73
2018-12-31T07:22:46.187Z,20.10
2018-12-31T07:25:12.655Z,18.12
2018-12-31T07:27:39.408Z,19.50
2018-12-31T07:30:06.090Z,18.02
2018-12-31T07:32:32.713Z,20.08
2018-12-31T07:34:59.180Z,18.55
2018-12-31T07:37:25.631Z,17.00
2018-12-31T07:39:52.080Z,18.30
2018-12-31T07:42:18.554Z,19.67
2018-12-31T07:44:45.028Z,20.95
2018-12-31T07:47:11.476Z,18.82
2018-12-31T07:49:37.824Z,20.25
2018-12-31T07:52:04.293Z,19.80
2018-12-31T07:54:30.742Z,17.55
2018-12-31T07:56:57.220Z,20.70
2018-12-31T07:59:23.765Z,18.80
2018-12-31T08:01:50.231Z,21.07
2018-12-31T08:04:16.584Z,21.30
2018-12-31T08:06:43.159Z,21.37
2018-12-31T08:09:09.604Z,23.65
2018-12-31T08:11:36.062Z,22.32
2018-12-31T08:14:02.508Z,22.77
2018-12-31T08:16:28.883Z,25.55
2018-12-31T08:18:55.500Z,27.02
2018-12-31T08:21:21.976Z,26.23
2018-12-31T08:23:48.516Z,26.97
2018-12-31T08:26:15.095Z,27.07
2018-12-31T08:28:41.672Z,25.70
2018-12-31T08:31:08.111Z,26.70
2018-12-31T08:33:34.578Z,24.23
2018-12-31T08:36:01.123Z,25.43
2018-12-31T08:38:27.540Z,26.95
2018-12-31T08:40:53.972Z,26.82
2018-12-31T08:43:20.336Z,27.02
2018-12-31T08:45:46.688Z,23.67
2018-12-31T08:48:13.160Z,27.17
2018-12-31T08:50:39.614Z,25.80
2018-12-31T08:53:05.983Z,24.07
2018-12-31T08:55:32.344Z,24.65
2018-12-31T08:57:58.803Z,23.40
2018-12-31T09:00:25.157Z,20.68
2018-12-31T09:02:51.697Z,23.15
2018-12-31T09:05:18.168Z,21.77
2018-12-31T09:07:44.627Z,24.23
2018-12-31T09:10:10.993Z,25.30
2018-12-31T09:12:37.460Z,27.37
2018-12-31T09:15:04.211Z,23.00
2018-12-31T09:17:30.661Z,25.50
2018-12-31T09:19:57.133Z,22.70
2018-12-31T09:22:23.572Z,22.70
2018-12-31T09:24:50.211Z,25.85
2018-12-31T09:27:16.748Z,26.05
2018-12-31T09:29:43.156Z,24.45
2018-12-31T09:32:09.604Z,21.80
2018-12-31T09:34:35.971Z,22.65
2018-12-31T09:37:02.529Z,23.27
2018-12-31T09:39:29.012Z,21.35
2018-12-31T09:41:55.552Z,24.95
2018-12-31T09:44:22.043Z,24.63
2018-12-31T09:46:48.739Z,24.18
2018-12-31T09:49:15.094Z,23.65
2018-12-31T09:51:41.464Z,27.13
2018-12-31T09:54:07.907Z,23.45
2018-12-31T09:56:34.519Z,23.73
2018-12-31T09:59:01.038Z,24.05
2018-12-31T10:01:27.677Z,23.85
2018-12-31T10:03:54.150Z,27.60
2018-12-31T10:06:20.612Z,34.10
2018-12-31T10:08:49.415Z,30.30
2018-12-31T10:11:15.430Z,26.15
2018-12-31T10:13:41.893Z,26.37
2018-12-31T10:16:08.356Z,26.70
2018-12-31T10:18:35.072Z,26.40
2018-12-31T10:21:01.536Z,26.62
2018-12-31T10:23:28.016Z,24.77
2018-12-31T10:25:55.554Z,27.15
2018-12-31T10:28:22.330Z,27.93
2018-12-31T10:30:48.967Z,26.40
2018-12-31T10:33:15.440Z,24.60
2018-12-31T10:35:41.884Z,26.48
2018-12-31T10:38:08.614Z,27.30
2018-12-31T10:40:35.059Z,27.55
2018-12-31T10:43:01.527Z,24.45
2018-12-31T10:45:27.887Z,25.75
2018-12-31T10:47:54.347Z,24.80
2018-12-31T10:50:20.712Z,24.47
2018-12-31T10:52:47.183Z,25.02
2018-12-31T10:55:13.640Z,22.95
2018-12-31T10:57:40.110Z,23.92
2018-12-31T11:00:07.467Z,26.10
2018-12-31T11:02:34.220Z,23.83
2018-12-31T11:05:00.676Z,22.30
2018-12-31T11:07:27.060Z,25.50
2018-12-31T11:09:53.513Z,24.72
2018-12-31T11:12:19.956Z,26.45
2018-12-31T11:14:46.323Z,25.17
2018-12-31T11:17:12.685Z,27.30
2018-12-31T11:19:39.185Z,23.00
2018-12-31T11:22:05.626Z,25.35
2018-12-31T11:24:32.120Z,26.37
2018-12-31T11:26:58.579Z,24.25
2018-12-31T11:29:24.954Z,24.65
2018-12-31T11:31:51.416Z,25.65
2018-12-31T11:34:17.875Z,24.32
2018-12-31T11:36:44.232Z,23.57
2018-12-31T11:39:10.725Z,23.32
2018-12-31T11:41:37.268Z,20.97
2018-12-31T11:44:03.751Z,21.02
2018-12-31T11:46:30.455Z,22.60
2018-12-31T11:48:56.928Z,25.32
2018-12-31T11:51:23.557Z,25.77
2018-12-31T11:53:50.040Z,24.25
2018-12-31T11:56:16.475Z,22.62
2018-12-31T11:58:42.948Z,21.45
2018-12-31T12:01:09.500Z,23.75
2018-12-31T12:03:35.971Z,25.50
2018-12-31T12:06:02.787Z,20.77
2018-12-31T12:08:29.264Z,21.97
2018-12-31T12:10:55.813Z,21.15
2018-12-31T12:13:22.308Z,22.90
2018-12-31T12:15:48.856Z,23.07
2018-12-31T12:18:15.566Z,22.77
2018-12-31T12:20:42.349Z,24.70
2018-12-31T12:23:08.795Z,25.02
2018-12-31T12:25:38.224Z,27.80
2018-12-31T12:28:05.258Z,23.80
2018-12-31T12:30:31.769Z,25.95
2018-12-31T12:32:58.223Z,23.77
2018-12-31T12:35:24.621Z,25.40
2018-12-31T12:37:51.055Z,25.97
2018-12-31T12:40:17.536Z,24.45
2018-12-31T12:42:44.091Z,26.55
2018-12-31T12:45:10.546Z,24.75
2018-12-31T12:47:37.108Z,24.47
2018-12-31T12:50:04.183Z,24.30
2018-12-31T12:52:30.668Z,24.55
2018-12-31T12:54:57.142Z,20.43
2018-12-31T12:57:23.595Z,24.60
2018-12-31T12:59:50.352Z,23.57
2018-12-31T13:02:16.809Z,24.05
2018-12-31T13:04:43.267Z,26.17
2018-12-31T13:07:09.736Z,25.55
2018-12-31T13:09:36.185Z,22.20
2018-12-31T13:12:02.860Z,21.50
2018-12-31T13:14:29.331Z,22.32
2018-12-31T13:16:56.004Z,22.00
2018-12-31T13:19:22.538Z,21.97
2018-12-31T13:21:48.922Z,21.00
2018-12-31T13:24:15.468Z,22.80
2018-12-31T13:26:43.697Z,23.75
2018-12-31T13:29:10.219Z,19.23
2018-12-31T13:31:36.995Z,19.87
2018-12-31T13:34:03.557Z,20.35
2018-12-31T13:36:30.289Z,22.37
2018-12-31T13:38:56.784Z,24.20
2018-12-31T13:41:23.434Z,19.70
2018-12-31T13:43:50.000Z,22.70
2018-12-31T13:46:16.459Z,22.42
2018-12-31T13:48:43.219Z,20.45
2018-12-31T13:51:09.865Z,21.27
2018-12-31T13:53:36.549Z,23.47
2018-12-31T13:56:03.201Z,22.30
2018-12-31T13:58:31.567Z,23.00
2018-12-31T14:00:58.111Z,20.68
2018-12-31T14:03:24.616Z,18.90
2018-12-31T14:05:51.084Z,20.02
2018-12-31T14:08:17.555Z,22.87
2018-12-31T14:10:44.205Z,20.00
2018-12-31T14:13:10.691Z,20.77
2018-12-31T14:15:37.237Z,19.12
2018-12-31T14:18:04.051Z,20.27
2018-12-31T14:20:30.516Z,20.77
2018-12-31T14:22:58.867Z,19.48
2018-12-31T14:25:25.539Z,20.97
2018-12-31T14:27:51.999Z,23.62
2018-12-31T14:30:18.561Z,20.05
2018-12-31T14:32:47.940Z,20.02
2018-12-31T14:35:14.914Z,18.42
2018-12-31T14:37:41.602Z,21.35
2018-12-31T14:40:10.223Z,22.50
2018-12-31T14:42:36.677Z,18.55
2018-12-31T14:45:04.256Z,17.80
2018-12-31T14:47:30.704Z,19.67
2018-12-31T14:49:57.473Z,18.95
2018-12-31T14:52:23.917Z,17.55
2018-12-31T14:54:50.396Z,21.80
2018-12-31T14:57:16.848Z,20.27
2018-12-31T14:59:43.443Z,19.35
2018-12-31T15:02:09.987Z,18.37
2018-12-31T15:04:36.800Z,19.80
2018-12-31T15:07:03.391Z,22.22
2018-12-31T15:09:29.828Z,19.60
2018-12-31T15:11:56.563Z,19.77
2018-12-31T15:14:23.588Z,20.15
2018-12-31T15:16:50.595Z,22.58
2018-12-31T15:19:17.308Z,18.90
2018-12-31T15:21:44.158Z,22.05
2018-12-31T15:24:11.067Z,19.62
2018-12-31T15:26:37.669Z,19.98
2018-12-31T15:29:04.400Z,19.87
2018-12-31T15:31:30.990Z,19.35
2018-12-31T15:33:57.543Z,22.80
2018-12-31T15:36:24.116Z,20.02
2018-12-31T15:38:50.795Z,19.73
2018-12-31T15:41:17.259Z,20.08
2018-12-31T15:43:43.719Z,19.23
2018-12-31T15:46:10.159Z,21.33
2018-12-31T15:48:36.630Z,21.42
2018-12-31T15:51:03.460Z,22.50
2018-12-31T15:53:30.235Z,20.88
2018-12-31T15:55:56.705Z,20.70
2018-12-31T15:58:23.180Z,22.17
2018-12-31T16:00:49.639Z,22.75
2018-12-31T16:03:16.107Z,21.93
2018-12-31T16:05:42.611Z,21.70
2018-12-31T16:08:09.391Z,24.18
2018-12-31T16:10:35.840Z,23.73
2018-12-31T16:13:02.727Z,22.65
2018-12-31T16:15:29.213Z,22.67
2018-12-31T16:17:55.930Z,24.50
2018-12-31T16:20:22.396Z,26.27
2018-12-31T16:22:49.439Z,24.35
2018-12-31T16:25:16.212Z,21.52
2018-12-31T16:27:44.822Z,23.07
2018-12-31T16:30:11.552Z,21.05
2018-12-31T16:32:38.156Z,21.82
2018-12-31T16:35:04.940Z,27.00
2018-12-31T16:37:31.705Z,23.80
2018-12-31T16:39:58.632Z,23.98
2018-12-31T16:42:25.188Z,23.65
2018-12-31T16:44:51.669Z,24.67
2018-12-31T16:47:18.125Z,23.12
2018-12-31T16:49:44.588Z,24.98
2018-12-31T16:52:11.049Z,24.18
2018-12-31T16:54:37.767Z,22.93
2018-12-31T16:57:05.865Z,22.73
2018-12-31T16:59:32.356Z,25.17
2018-12-31T17:01:59.183Z,24.23
2018-12-31T17:04:25.620Z,24.72
2018-12-31T17:06:52.200Z,28.27
2018-12-31T17:09:18.665Z,26.42
2018-12-31T17:11:45.150Z,24.98
2018-12-31T17:14:15.172Z,26.25
2018-12-31T17:16:41.581Z,27.50
2018-12-31T17:19:11.051Z,28.20
2018-12-31T17:21:37.543Z,27.00
2018-12-31T17:24:04.028Z,26.73
2018-12-31T17:26:30.751Z,25.52
2018-12-31T17:28:57.228Z,27.20
2018-12-31T17:31:23.668Z,26.25
2018-12-31T17:33:50.223Z,27.58
2018-12-31T17:36:17.723Z,25.15
2018-12-31T17:38:44.437Z,23.47
2018-12-31T17:41:10.889Z,27.90
2018-12-31T17:43:37.372Z,28.05
2018-12-31T17:46:03.832Z,28.50
2018-12-31T17:48:30.303Z,26.70
2018-12-31T17:50:56.859Z,26.97
2018-12-31T17:53:23.635Z,26.00
2018-12-31T17:55:50.080Z,27.48
2018-12-31T17:58:16.584Z,24.55
2018-12-31T18:00:43.018Z,26.17
2018-12-31T18:03:09.523Z,28.40
2018-12-31T18:05:35.964Z,27.07
2018-12-31T18:08:04.828Z,24.15
2018-12-31T18:10:31.129Z,30.37
2018-12-31T18:12:57.632Z,29.20
2018-12-31T18:15:24.038Z,28.15
2018-12-31T18:17:51.727Z,26.62
2018-12-31T18:20:18.199Z,28.73
2018-12-31T18:22:44.762Z,28.73
2018-12-31T18:25:11.355Z,28.05
2018-12-31T18:27:37.807Z,27.02
2018-12-31T18:30:06.469Z,28.32
2018-12-31T18:32:33.220Z,27.60
2018-12-31T18:35:05.912Z,27.73
2018-12-31T18:37:32.355Z,25.95
2018-12-31T18:39:58.843Z,26.82
2018-12-31T18:42:25.356Z,25.43
2018-12-31T18:44:51.920Z,24.98
2018-12-31T18:47:18.467Z,28.60
2018-12-31T18:49:44.928Z,31.25
2018-12-31T18:52:11.379Z,30.23
2018-12-31T18:54:38.023Z,26.57
2018-12-31T18:57:04.840Z,25.45
2018-12-31T18:59:31.407Z,25.72
2018-12-31T19:01:57.887Z,25.57
2018-12-31T19:04:24.452Z,25.00
2018-12-31T19:06:51.096Z,28.35
2018-12-31T19:09:17.582Z,26.37
2018-12-31T19:11:44.034Z,27.20
2018-12-31T19:14:10.473Z,29.00
2018-12-31T19:16:37.080Z,28.52
2018-12-31T19:19:03.470Z,29.00
2018-12-31T19:21:29.934Z,30.23
2018-12-31T19:23:56.754Z,33.35
2018-12-31T19:26:23.511Z,42.38
2018-12-31T19:28:50.125Z,70.30
2018-12-31T19:31:16.599Z,40.43
2018-12-31T19:33:44.981Z,30.37
2018-12-31T19:36:11.463Z,31.95
2018-12-31T19:38:37.946Z,28.80
2018-12-31T19:41:10.107Z,31.52
2018-12-31T19:43:36.595Z,29.72
2018-12-31T19:46:03.091Z,30.97
2018-12-31T19:48:29.551Z,29.55
2018-12-31T19:50:56.017Z,30.85
2018-12-31T19:53:22.491Z,32.15
2018-12-31T19:55:48.931Z,35.60
2018-12-31T19:58:15.408Z,30.37
2018-12-31T20:00:41.961Z,33.55
2018-12-31T20:03:08.440Z,29.45
2018-12-31T20:05:34.897Z,33.30
2018-12-31T20:08:01.363Z,29.00
2018-12-31T20:10:27.917Z,33.10
2018-12-31T20:12:54.650Z,29.10
2018-12-31T20:15:21.100Z,27.15
2018-12-31T20:17:49.420Z,29.77
2018-12-31T20:20:16.096Z,27.67
2018-12-31T20:22:42.828Z,31.00
2018-12-31T20:25:09.420Z,28.42
2018-12-31T20:27:35.869Z,31.70
2018-12-31T20:30:03.391Z,29.27
2018-12-31T20:32:29.934Z,30.65
2018-12-31T20:34:56.516Z,28.92
2018-12-31T20:37:22.957Z,30.20
2018-12-31T20:39:49.511Z,30.50
2018-12-31T20:42:15.984Z,32.17
2018-12-31T20:44:42.431Z,29.37
2018-12-31T20:47:08.908Z,31.02
2018-12-31T20:49:35.353Z,34.20
2018-12-31T20:52:01.922Z,30.75
2018-12-31T20:54:28.388Z,30.43
2018-12-31T20:56:54.848Z,33.42
2018-12-31T20:59:21.392Z,36.13
2018-12-31T21:01:47.847Z,32.85
2018-12-31T21:04:14.403Z,30.95
2018-12-31T21:06:41.129Z,26.12
2018-12-31T21:09:07.573Z,26.12
2018-12-31T21:11:34.324Z,27.58
2018-12-31T21:14:00.999Z,25.37
2018-12-31T21:16:27.440Z,26.17
2018-12-31T21:18:53.917Z,25.82
2018-12-31T21:21:20.361Z,27.70
2018-12-31T21:23:46.851Z,25.48
2018-12-31T21:26:13.299Z,32.08
2018-12-31T21:28:39.790Z,32.28
2018-12-31T21:31:06.336Z,30.82
2018-12-31T21:33:32.907Z,32.10
2018-12-31T21:35:59.364Z,29.45
2018-12-31T21:38:26.091Z,40.78
2018-12-31T21:40:52.680Z,33.05
2018-12-31T21:43:19.622Z,25.68
2018-12-31T21:45:46.183Z,25.57
2018-12-31T21:48:12.632Z,24.30
2018-12-31T21:50:39.360Z,25.08
2018-12-31T21:53:06.090Z,25.85
2018-12-31T21:55:32.657Z,24.32
2018-12-31T21:58:01.841Z,25.65
2018-12-31T22:00:28.315Z,23.90
2018-12-31T22:02:57.215Z,25.60
2018-12-31T22:05:23.407Z,25.10
2018-12-31T22:07:49.975Z,25.55
2018-12-31T22:10:16.531Z,24.90
2018-12-31T22:12:42.980Z,26.45
2018-12-31T22:15:09.454Z,25.40
2018-12-31T22:17:35.903Z,25.10
2018-12-31T22:20:04.973Z,24.72
2018-12-31T22:22:31.440Z,25.68
2018-12-31T22:24:57.878Z,27.30
2018-12-31T22:27:24.253Z,28.67
2018-12-31T22:29:51.099Z,24.75
2018-12-31T22:32:17.680Z,29.48
2018-12-31T22:34:44.219Z,28.42
2018-12-31T22:37:10.793Z,28.27
2018-12-31T22:39:37.499Z,27.87
2018-12-31T22:42:04.434Z,26.48
2018-12-31T22:44:31.415Z,29.23
2018-12-31T22:46:57.952Z,29.37
2018-12-31T22:49:24.400Z,32.08
2018-12-31T22:51:50.872Z,28.95
2018-12-31T22:54:17.368Z,28.40
2018-12-31T22:56:43.795Z,34.55
2018-12-31T22:59:10.461Z,31.55
2018-12-31T23:01:36.928Z,41.73
2018-12-31T23:04:03.408Z,48.30
2018-12-31T23:06:29.865Z,110.08
2018-12-31T23:08:56.327Z,145.10
2018-12-31T23:11:22.771Z,245.15
2018-12-31T23:13:49.235Z,288.55
2018-12-31T23:16:15.894Z,268.52
2018-12-31T23:18:42.376Z,300.43
2018-12-31T23:21:09.071Z,314.25
2018-12-31T23:23:35.560Z,238.03
2018-12-31T23:26:02.022Z,240.18
2018-12-31T23:28:28.482Z,236.30
2018-12-31T23:30:55.336Z,234.72
2018-12-31T23:33:21.803Z,199.10
2018-12-31T23:35:48.270Z,190.40
2018-12-31T23:38:14.976Z,177.30
2018-12-31T23:40:41.798Z,193.47
2018-12-31T23:43:08.283Z,180.05
2018-12-31T23:45:35.128Z,201.20
2018-12-31T23:48:01.585Z,153.82
2018-12-31T23:50:28.031Z,195.62
2018-12-31T23:52:54.512Z,144.57
2018-12-31T23:55:21.066Z,126.42
2018-12-31T23:57:47.544Z,103.15
